DFOO/BOY METAR and TAF weather

Enter ICAO airport designator
Station Type Date Time Source
DFOO METAR 2021/09/16 11:00 UTC NOAA

DFOO 161100Z 19008KT 150V230 9999 SCT016 28/21 Q1017


Station Type Date Time Source
DFOO Decoded METAR 2021/09/16 11:00 UTC NOAA

Bobo-Dioulasso, Burkina Faso (DFOO) 11-10N 004-19W 460M
Sep 16, 2021 - 07:00 AM EDT / 2021.09.16 1100 UTC
Wind: from the S (190 degrees) at 9 MPH (8 KT) (direction variable):0
Visibility: greater than 7 mile(s):0
Sky conditions: partly cloudy
Temperature: 82 F (28 C)
Dew Point: 69 F (21 C)
Relative Humidity: 65%
Pressure (altimeter): 30.03 in. Hg (1017 hPa)
ob: DFOO 161100Z 19008KT 150V230 9999 SCT016 28/21 Q1017
cycle: 11

Station Type Date Time Source
DFOO TAF 2021/09/16 06:06 UTC NOAA

TAF DFOO 160500Z 1606/1706 16008KT 9999 SCT016
TEMPO 1612/1620 4000 TSRA SCT016 FEW033CB

Example: see airport list